| time (UTC) | temp C | wind direction | speed KPH | gust KPH | rain 1hr cm | rain 24hr cm | rain mn cm | humidity % | barometer mb |
| 20260507225212 | 10 | 307 | 8.0 | 17.7 | 0.00 | 0.00 | 0.00 | 91 | 1017.0 |
| 20260507223712 | 10 | 307 | 8.0 | 17.7 | 0.00 | 0.00 | 0.00 | 91 | 1017.0 |
| 20260507222211 | 10 | 296 | 8.0 | 19.3 | 0.00 | 0.00 | 0.00 | 88 | 1017.0 |
| 20260507220711 | 10 | 296 | 8.0 | 19.3 | 0.00 | 0.00 | 0.00 | 88 | 1017.0 |
| 20260507215211 | 10 | 296 | 8.0 | 19.3 | 0.00 | 0.00 | 0.00 | 92 | 1017.0 |
| 20260507213710 | 10 | 296 | 8.0 | 19.3 | 0.00 | 0.00 | 0.00 | 91 | 1017.0 |
| 20260507212210 | 10 | 281 | 9.7 | 19.3 | 0.00 | 0.00 | 0.00 | 87 | 1017.0 |
| 20260507210710 | 10 | 281 | 9.7 | 19.3 | 0.00 | 0.00 | 0.00 | 87 | 1016.0 |
| 20260507205209 | 10 | 281 | 9.7 | 19.3 | 0.00 | 0.00 | 0.00 | 91 | 1016.0 |
| 20260507203709 | 10 | 281 | 9.7 | 19.3 | 0.00 | 0.00 | 0.00 | 91 | 1016.0 |
| 20260507202208 | 11 | 293 | 8.0 | 22.5 | 0.00 | 0.00 | 0.00 | 86 | 1016.0 |
| 20260507200708 | 11 | 293 | 8.0 | 22.5 | 0.00 | 0.00 | 0.00 | 86 | 1016.0 |
| 20260507195208 | 11 | 293 | 8.0 | 22.5 | 0.00 | 0.00 | 0.00 | 90 | 1016.0 |
| 20260507193707 | 11 | 293 | 8.0 | 22.5 | 0.00 | 0.00 | 0.00 | 89 | 1016.0 |
| 20260507192207 | 11 | 299 | 11.3 | 24.1 | 0.00 | 0.00 | 0.00 | 84 | 1015.0 |
| 20260507190706 | 11 | 299 | 11.3 | 24.1 | 0.00 | 0.00 | 0.00 | 86 | 1015.0 |
| 20260507185206 | 11 | 299 | 11.3 | 24.1 | 0.00 | 0.00 | 0.00 | 86 | 1015.0 |
| 20260507183706 | 11 | 311 | 8.0 | 19.3 | 0.00 | 0.00 | 0.00 | 86 | 1015.0 |
| 20260507182205 | 12 | 302 | 11.3 | 20.9 | 0.00 | 0.00 | 0.00 | 78 | 1014.0 |
| 20260507180705 | 12 | 302 | 11.3 | 20.9 | 0.00 | 0.00 | 0.00 | 80 | 1014.0 |
| 20260507175205 | 12 | 302 | 11.3 | 20.9 | 0.00 | 0.00 | 0.00 | 80 | 1014.0 |
| 20260507173704 | 12 | 302 | 11.3 | 20.9 | 0.00 | 0.00 | 0.00 | 80 | 1013.0 |
| 20260507172204 | 13 | 277 | 12.9 | 22.5 | 0.00 | 0.00 | 0.00 | 72 | 1013.0 |
| 20260507170704 | 13 | 277 | 12.9 | 22.5 | 0.00 | 0.00 | 0.00 | 70 | 1013.0 |
| 20260507165203 | 13 | 277 | 12.9 | 22.5 | 0.00 | 0.00 | 0.00 | 73 | 1013.0 |
| 20260507163703 | 13 | 277 | 12.9 | 22.5 | 0.00 | 0.00 | 0.00 | 73 | 1013.0 |
| 20260507162202 | 13 | 273 | 14.5 | 22.5 | 0.00 | 0.00 | 0.00 | 66 | 1012.0 |
| 20260507160702 | 13 | 273 | 14.5 | 22.5 | 0.00 | 0.00 | 0.00 | 67 | 1013.0 |
| 20260507155202 | 15 | 273 | 14.5 | 22.5 | 0.00 | 0.00 | 0.00 | 71 | 1012.0 |
| 20260507153701 | 15 | 273 | 14.5 | 22.5 | 0.00 | 0.00 | 0.00 | 71 | 1012.0 |
| 20260507152201 | 15 | 262 | 16.1 | 19.3 | 0.00 | 0.00 | 0.00 | 65 | 1012.0 |
| 20260507150701 | 15 | 262 | 16.1 | 19.3 | 0.00 | 0.00 | 0.00 | 64 | 1012.0 |
| 20260507145200 | 16 | 262 | 16.1 | 19.3 | 0.00 | 0.00 | 0.00 | 66 | 1012.0 |
| 20260507143700 | 16 | 262 | 16.1 | 19.3 | 0.00 | 0.00 | 0.00 | 66 | 1012.0 |
| 20260507142159 | 15 | 262 | 16.1 | 20.9 | 0.00 | 0.00 | 0.00 | 61 | 1012.0 |
| 20260507140659 | 15 | 262 | 16.1 | 20.9 | 0.00 | 0.00 | 0.00 | 61 | 1012.0 |
| 20260507135159 | 16 | 262 | 16.1 | 20.9 | 0.00 | 0.00 | 0.00 | 60 | 1012.0 |
| 20260507133659 | 16 | 262 | 16.1 | 20.9 | 0.00 | 0.00 | 0.00 | 59 | 1012.0 |
| 20260507132158 | 15 | 274 | 17.7 | 22.5 | 0.00 | 0.00 | 0.00 | 60 | 1012.0 |
| 20260507130658 | 16 | 274 | 17.7 | 22.5 | 0.00 | 0.00 | 0.00 | 61 | 1012.0 |
| 20260507125158 | 16 | 274 | 17.7 | 22.5 | 0.00 | 0.00 | 0.00 | 61 | 1012.0 |
| 20260507123657 | 16 | 268 | 19.3 | 25.7 | 0.00 | 0.00 | 0.00 | 61 | 1012.0 |
| 20260507122157 | 15 | 266 | 20.9 | 24.1 | 0.00 | 0.00 | 0.00 | 62 | 1012.0 |
| 20260507120656 | 16 | 266 | 20.9 | 24.1 | 0.00 | 0.00 | 0.00 | 62 | 1012.0 |
| 20260507115156 | 16 | 266 | 20.9 | 24.1 | 0.00 | 0.00 | 0.00 | 62 | 1012.0 |
| 20260507113656 | 16 | 266 | 20.9 | 24.1 | 0.00 | 0.00 | 0.00 | 62 | 1012.0 |
| 20260507112155 | 15 | 260 | 19.3 | 22.5 | 0.00 | 0.00 | 0.00 | 65 | 1012.0 |
| 20260507110655 | 16 | 260 | 19.3 | 22.5 | 0.00 | 0.00 | 0.00 | 65 | 1012.0 |
| 20260507105155 | 16 | 260 | 19.3 | 22.5 | 0.00 | 0.00 | 0.00 | 65 | 1012.0 |
| 20260507103654 | 16 | 260 | 19.3 | 22.5 | 0.00 | 0.00 | 0.00 | 65 | 1011.0 |
| 20260507102154 | 15 | 256 | 19.3 | 22.5 | 0.00 | 0.00 | 0.00 | 66 | 1012.0 |
| 20260507100654 | 15 | 256 | 19.3 | 22.5 | 0.00 | 0.00 | 0.00 | 68 | 1012.0 |
| 20260507095153 | 16 | 256 | 19.3 | 22.5 | 0.00 | 0.00 | 0.00 | 66 | 1011.0 |
| 20260507093653 | 16 | 256 | 19.3 | 22.5 | 0.00 | 0.00 | 0.00 | 66 | 1011.0 |
| 20260507092153 | 15 | 245 | 17.7 | 22.5 | 0.00 | 0.00 | 0.00 | 70 | 1011.0 |
| 20260507090652 | 15 | 245 | 17.7 | 22.5 | 0.00 | 0.00 | 0.00 | 72 | 1011.0 |
| 20260507085152 | 15 | 245 | 17.7 | 22.5 | 0.00 | 0.00 | 0.00 | 71 | 1011.0 |
| 20260507083651 | 15 | 245 | 17.7 | 22.5 | 0.00 | 0.00 | 0.00 | 72 | 1011.0 |
| 20260507082151 | 13 | 250 | 17.7 | 24.1 | 0.00 | 0.00 | 0.00 | 77 | 1011.0 |
| 20260507080650 | 13 | 250 | 17.7 | 24.1 | 0.00 | 0.00 | 0.00 | 77 | 1011.0 |
| 20260507075150 | 14 | 250 | 17.7 | 24.1 | 0.00 | 0.00 | 0.00 | 77 | 1011.0 |
| 20260507073650 | 14 | 250 | 17.7 | 24.1 | 0.00 | 0.00 | 0.00 | 78 | 1011.0 |
| 20260507072149 | 13 | 249 | 17.7 | 25.7 | 0.00 | 0.00 | 0.00 | 81 | 1011.0 |
| 20260507070649 | 13 | 249 | 17.7 | 25.7 | 0.00 | 0.00 | 0.00 | 83 | 1011.0 |
| 20260507065149 | 13 | 249 | 17.7 | 25.7 | 0.00 | 0.00 | 0.00 | 85 | 1011.0 |
| 20260507063648 | 13 | 247 | 17.7 | 27.4 | 0.00 | 0.00 | 0.00 | 85 | 1011.0 |
| 20260507062148 | 12 | 241 | 16.1 | 29.0 | 0.00 | 0.00 | 0.00 | 87 | 1010.0 |
| 20260507060647 | 12 | 241 | 16.1 | 29.0 | 0.00 | 0.00 | 0.00 | 89 | 1010.0 |
| 20260507055147 | 12 | 241 | 16.1 | 29.0 | 0.00 | 0.00 | 0.00 | 89 | 1010.0 |
| 20260507053647 | 12 | 241 | 16.1 | 29.0 | 0.00 | 0.00 | 0.00 | 89 | 1010.0 |
| 20260507052146 | 11 | 236 | 14.5 | 32.2 | 0.00 | 0.00 | 0.00 | 91 | 1010.0 |
| 20260507050646 | 11 | 236 | 14.5 | 32.2 | 0.00 | 0.00 | 0.00 | 92 | 1009.0 |
| 20260507045145 | 11 | 236 | 14.5 | 32.2 | 0.00 | 0.00 | 0.00 | 92 | 1009.0 |
| 20260507043645 | 11 | 236 | 14.5 | 32.2 | 0.00 | 0.00 | 0.00 | 92 | 1009.0 |
| 20260507042145 | 11 | 233 | 14.5 | 35.4 | 0.00 | 0.00 | 0.00 | 93 | 1009.0 |
| 20260507040644 | 11 | 233 | 14.5 | 35.4 | 0.00 | 0.00 | 0.00 | 93 | 1009.0 |
| 20260507035144 | 11 | 233 | 14.5 | 35.4 | 0.00 | 0.00 | 0.00 | 93 | 1009.0 |
| 20260507033643 | 11 | 233 | 14.5 | 35.4 | 0.00 | 0.00 | 0.00 | 93 | 1009.0 |
| 20260507032143 | 11 | 235 | 14.5 | 35.4 | 0.00 | 0.00 | 0.00 | 93 | 1009.0 |
| 20260507030643 | 11 | 235 | 14.5 | 35.4 | 0.00 | 0.00 | 0.00 | 93 | 1009.0 |
| 20260507025142 | 11 | 235 | 14.5 | 35.4 | 0.00 | 0.00 | 0.00 | 93 | 1009.0 |
| 20260507023642 | 11 | 235 | 14.5 | 35.4 | 0.00 | 0.00 | 0.00 | 93 | 1009.0 |
| 20260507022142 | 11 | 241 | 12.9 | 32.2 | 0.00 | 0.00 | 0.00 | 93 | 1009.0 |
| 20260507020641 | 11 | 241 | 12.9 | 32.2 | 0.00 | 0.00 | 0.00 | 93 | 1008.0 |
| 20260507015141 | 11 | 241 | 12.9 | 32.2 | 0.00 | 0.00 | 0.00 | 93 | 1008.0 |
| 20260507013641 | 11 | 241 | 12.9 | 32.2 | 0.00 | 0.00 | 0.00 | 93 | 1008.0 |
| 20260507012140 | 12 | 239 | 11.3 | 27.4 | 0.00 | 0.00 | 0.00 | 93 | 1008.0 |
| 20260507010640 | 12 | 239 | 11.3 | 27.4 | 0.00 | 0.00 | 0.00 | 93 | 1008.0 |
| 20260507005140 | 12 | 256 | 11.3 | 27.4 | 0.00 | 0.00 | 0.00 | 93 | 1008.0 |
| 20260507003639 | 12 | 256 | 11.3 | 27.4 | 0.00 | 0.00 | 0.00 | 93 | 1008.0 |
| 20260507002139 | 12 | 281 | 14.5 | 25.7 | 0.00 | 0.00 | 0.00 | 93 | 1007.0 |
| 20260507000639 | 12 | 281 | 14.5 | 25.7 | 0.00 | 0.00 | 0.00 | 94 | 1007.0 |
| 20260506235138 | 12 | 281 | 14.5 | 25.7 | 0.00 | 0.00 | 0.00 | 94 | 1007.0 |
| 20260506233638 | 12 | 281 | 14.5 | 25.7 | 0.00 | 0.00 | 0.00 | 94 | 1007.0 |
| 20260506232138 | 13 | 267 | 22.5 | 35.4 | 0.00 | 0.00 | 0.00 | 92 | 1007.0 |
| 20260506230637 | 13 | 267 | 22.5 | 35.4 | 0.00 | 0.00 | 0.00 | 92 | 1007.0 |